Weather at Acadian Medical Center Heliport

Public forecast

Using degrees Fahrenheit for public forecast. Weather courtesy of forecast.io.

Closest aviation weather report (METAR) to Acadian Medical Center Heliport

Closest report is St Landry Parish Ahart Field, 15.3 nm (28.4 km) ENE. Retrieved 2020/10/30 10:35 UTC (0 seconds ago):

KOPL 301035Z AUTO 02013G25KT 10SM OVC017 10/07 A3017 RMK AO2 T01020066

Closest aviation forecast (TAF) to Acadian Medical Center Heliport

Closest forecast is Lafayette Regional Airport, 27.1 nm (50.2 km) SE. Retrieved 2020/10/30 06:22 UTC (4 hours ago):

TAF KLFT 300520Z 3006/3106 34011KT P6SM SCT025 FM301000 01009KT P6SM FEW030 FM301500 04013G21KT P6SM SKC